createdAt,value
2023-01-11T04:22:18.175Z,69.28
2023-01-11T04:24:52.107Z,69.16
2023-01-11T04:36:01.841Z,67.44
2023-01-11T04:47:10.876Z,67.92
2023-01-11T04:48:02.402Z,65.73
2023-01-11T04:55:48.239Z,66.36
2023-01-11T05:01:34.552Z,68.09
2023-01-11T05:04:31.461Z,68.01
2023-01-11T05:07:13.073Z,68.63
2023-01-11T05:09:47.187Z,68.30
2023-01-11T05:12:18.424Z,68.00
2023-01-11T05:14:53.788Z,68.42
2023-01-11T05:17:33.155Z,68.66
2023-01-11T05:20:00.997Z,68.18
2023-01-11T05:22:29.044Z,68.11
2023-01-11T05:25:01.344Z,68.12
2023-01-11T05:27:30.199Z,68.02
2023-01-11T05:30:05.140Z,68.46
2023-01-11T05:32:37.720Z,67.25
2023-01-11T05:35:11.319Z,67.90
2023-01-11T05:37:46.932Z,67.85
2023-01-11T05:40:14.270Z,68.40
2023-01-11T05:46:53.948Z,68.41
2023-01-11T05:49:40.779Z,68.13
2023-01-11T06:14:12.241Z,67.13
2023-01-11T06:34:25.004Z,67.46
2023-01-11T06:42:47.801Z,67.10
2023-01-11T07:00:02.540Z,68.08
2023-01-11T07:07:24.799Z,69.30
2023-01-11T07:10:58.004Z,67.62
2023-01-11T07:14:31.025Z,69.83
2023-01-11T07:25:29.945Z,68.74
2023-01-11T07:29:01.703Z,70.07
2023-01-11T07:32:01.866Z,69.51
2023-01-11T07:39:01.628Z,69.55
2023-01-11T07:42:46.416Z,68.95
2023-01-11T07:52:09.439Z,69.84
2023-01-11T07:55:14.517Z,69.37
2023-01-11T07:57:57.428Z,69.34
2023-01-11T08:00:43.075Z,70.06
2023-01-11T08:03:31.289Z,70.56
2023-01-11T08:09:29.007Z,67.27
2023-01-11T08:16:55.973Z,69.08
2023-01-11T08:20:03.958Z,69.60
2023-01-11T08:23:17.567Z,68.73
2023-01-11T08:26:33.637Z,69.55
2023-01-11T08:29:04.364Z,69.60
2023-01-11T08:31:34.837Z,69.11
2023-01-11T08:34:43.999Z,67.64
2023-01-11T08:37:20.012Z,69.88
2023-01-11T08:40:51.983Z,68.27
2023-01-11T08:43:47.639Z,69.60
2023-01-11T08:46:52.550Z,69.82
2023-01-11T08:54:23.533Z,69.05
2023-01-11T09:02:14.676Z,66.69
2023-01-11T09:05:56.978Z,66.21
2023-01-11T09:08:54.143Z,68.11
2023-01-11T09:23:23.448Z,67.26
2023-01-11T09:42:32.655Z,68.49
2023-01-11T09:48:36.905Z,68.97
2023-01-11T09:51:55.159Z,68.29
2023-01-11T09:54:49.494Z,69.03
2023-01-11T10:01:27.599Z,68.69
2023-01-11T10:05:04.520Z,69.40
2023-01-11T10:18:29.556Z,68.54
2023-01-11T10:22:23.159Z,68.05
2023-01-11T10:29:20.193Z,67.77
2023-01-11T10:41:34.256Z,67.56
2023-01-11T10:44:38.075Z,69.27
2023-01-11T10:47:21.049Z,68.73
2023-01-11T10:51:02.053Z,67.21
2023-01-11T10:59:17.667Z,67.75
2023-01-11T11:03:51.170Z,68.39
2023-01-11T12:26:41.333Z,68.76
2023-01-11T12:34:52.493Z,67.64
2023-01-11T12:37:54.455Z,68.71
2023-01-11T12:49:08.337Z,69.93
2023-01-11T12:52:44.591Z,67.97
2023-01-11T13:00:13.258Z,66.88
2023-01-11T13:03:46.193Z,68.27
2023-01-11T13:11:43.905Z,68.60
2023-01-11T13:14:43.189Z,69.63
2023-01-11T13:17:50.795Z,68.58
2023-01-11T13:21:01.264Z,68.18
2023-01-11T13:24:12.552Z,68.67
2023-01-11T13:27:36.441Z,69.57
2023-01-11T13:30:25.170Z,68.89
2023-01-11T13:49:36.077Z,67.94
2023-01-11T13:52:37.260Z,67.88
2023-01-11T13:55:51.337Z,68.63
2023-01-11T13:59:01.789Z,66.04
2023-01-11T14:02:03.216Z,68.26
2023-01-11T14:05:01.339Z,67.88
2023-01-11T14:07:45.380Z,67.75
2023-01-11T14:10:24.059Z,68.50
2023-01-11T14:13:12.472Z,69.29
2023-01-11T14:15:58.804Z,69.44
2023-01-11T14:18:32.135Z,70.02
2023-01-11T14:21:05.243Z,70.19
2023-01-11T14:23:47.610Z,69.98
2023-01-11T14:26:14.691Z,69.50
2023-01-11T14:29:15.478Z,70.41
2023-01-11T14:32:07.545Z,70.15
2023-01-11T14:35:21.562Z,69.23
2023-01-11T14:38:16.041Z,69.86
2023-01-11T14:41:28.375Z,70.15
2023-01-11T14:48:18.510Z,70.18
2023-01-11T14:59:32.380Z,69.80
2023-01-11T15:02:13.075Z,70.78
2023-01-11T15:08:14.599Z,69.94
2023-01-11T15:17:37.888Z,70.11
2023-01-11T15:20:38.875Z,71.42
2023-01-11T15:23:52.066Z,71.52
2023-01-11T15:30:30.994Z,70.75
2023-01-11T15:34:12.694Z,70.39
2023-01-11T15:41:21.979Z,70.45
2023-01-11T15:58:32.260Z,71.31
2023-01-11T17:02:30.793Z,71.50
2023-01-11T17:05:27.432Z,71.10
2023-01-11T17:07:56.989Z,72.10
2023-01-11T17:10:35.832Z,71.96
2023-01-11T17:13:50.423Z,72.01
2023-01-11T17:16:28.412Z,71.15
2023-01-11T17:19:09.565Z,71.64
2023-01-11T17:23:56.227Z,72.01
2023-01-11T17:27:00.158Z,71.44
2023-01-11T17:29:58.590Z,71.38
2023-01-11T17:32:52.460Z,70.86
2023-01-11T17:35:31.731Z,70.92
2023-01-11T17:38:02.889Z,71.38
2023-01-11T17:40:32.555Z,71.27
2023-01-11T17:43:46.563Z,71.16
2023-01-11T17:46:18.696Z,71.61
2023-01-11T17:49:04.991Z,71.66
2023-01-11T17:51:43.572Z,71.25
2023-01-11T17:54:25.361Z,71.19
2023-01-11T17:56:59.707Z,71.41
2023-01-11T17:59:30.391Z,71.74
2023-01-11T18:02:00.237Z,71.56
2023-01-11T18:04:49.922Z,71.43
2023-01-11T18:07:27.533Z,71.16
2023-01-11T18:10:03.601Z,71.94
2023-01-11T18:12:46.273Z,71.88
2023-01-11T18:15:37.669Z,71.11
2023-01-11T18:18:26.366Z,71.31
2023-01-11T18:21:44.616Z,71.74
2023-01-11T18:24:43.539Z,71.18
2023-01-11T18:27:22.749Z,70.90
2023-01-11T18:29:56.044Z,71.29
2023-01-11T18:32:25.650Z,71.76
2023-01-11T18:35:04.428Z,71.76
2023-01-11T18:37:37.860Z,71.97
2023-01-11T18:40:40.067Z,71.14
2023-01-11T18:43:29.281Z,71.81
2023-01-11T18:45:59.262Z,70.98
2023-01-11T18:49:06.065Z,71.38
2023-01-11T18:52:10.132Z,71.36
2023-01-11T18:57:51.842Z,71.96
2023-01-11T19:30:46.211Z,71.84
2023-01-11T19:33:46.532Z,70.97
2023-01-11T19:36:35.008Z,71.75
2023-01-11T19:39:05.676Z,70.79
2023-01-11T19:42:24.955Z,71.52
2023-01-11T19:48:59.530Z,71.28
2023-01-11T19:52:01.306Z,71.78
2023-01-11T19:54:50.210Z,71.50
2023-01-11T19:58:02.833Z,70.72
2023-01-11T20:00:45.284Z,71.04
2023-01-11T20:04:02.842Z,70.86
2023-01-11T20:06:37.457Z,70.74
2023-01-11T20:09:12.589Z,71.04
2023-01-11T20:12:27.274Z,71.49
2023-01-11T20:15:45.550Z,71.04
2023-01-11T20:18:13.124Z,70.76
2023-01-11T20:21:03.358Z,71.58
2023-01-11T20:23:59.579Z,71.56
2023-01-11T20:26:59.194Z,70.92
2023-01-11T20:33:53.784Z,71.01
2023-01-11T20:37:38.856Z,70.89
2023-01-11T20:40:14.461Z,70.78
2023-01-11T20:43:03.170Z,71.10
2023-01-11T20:56:06.550Z,70.94
2023-01-11T20:58:52.405Z,70.49
2023-01-11T21:01:50.449Z,70.87
2023-01-11T21:04:31.769Z,70.53
2023-01-11T21:07:06.277Z,70.76
2023-01-11T21:10:02.046Z,70.88
2023-01-11T21:12:45.116Z,70.47
2023-01-11T21:15:16.295Z,71.27
2023-01-11T21:17:43.608Z,70.58
2023-01-11T21:20:20.079Z,70.80
2023-01-11T21:23:34.771Z,71.12
2023-01-11T21:26:08.863Z,70.87
2023-01-11T21:31:52.654Z,71.14
2023-01-11T21:34:24.065Z,70.53
2023-01-11T21:37:22.546Z,70.41
2023-01-11T21:39:57.796Z,70.68
2023-01-11T21:43:18.937Z,70.63
2023-01-11T21:45:59.701Z,70.70
2023-01-11T21:48:30.013Z,70.69
2023-01-11T21:51:01.603Z,70.90
2023-01-11T21:53:43.784Z,71.02
2023-01-11T21:56:14.991Z,71.09
2023-01-11T21:58:46.474Z,70.89
2023-01-11T22:01:19.568Z,71.01
2023-01-11T22:03:49.937Z,71.50
2023-01-11T22:06:20.401Z,70.91
2023-01-11T22:08:47.992Z,70.63
2023-01-11T22:11:17.275Z,70.86
2023-01-11T22:13:46.032Z,71.15
2023-01-11T22:16:16.220Z,71.09
2023-01-11T22:18:46.298Z,70.92
2023-01-11T22:21:18.278Z,70.96
2023-01-11T22:23:48.000Z,71.11
2023-01-11T22:26:16.850Z,70.72
2023-01-11T22:29:02.764Z,70.58
2023-01-11T22:31:31.152Z,70.83
2023-01-11T22:33:58.902Z,70.32
2023-01-11T22:36:29.104Z,70.94
2023-01-11T22:38:59.479Z,71.36
2023-01-11T22:41:28.985Z,70.88
2023-01-11T22:43:56.232Z,70.73
2023-01-11T22:46:27.378Z,70.81
2023-01-11T22:48:57.532Z,70.84
2023-01-11T22:51:25.681Z,70.87
2023-01-11T22:53:53.976Z,70.83
2023-01-11T22:56:23.907Z,71.01
2023-01-11T22:58:51.217Z,70.76
2023-01-11T23:01:21.360Z,70.35
2023-01-11T23:03:49.061Z,70.52
2023-01-11T23:06:20.834Z,70.85
2023-01-11T23:08:52.233Z,70.90
2023-01-11T23:11:40.390Z,70.68
2023-01-11T23:14:08.826Z,70.40
2023-01-11T23:16:36.878Z,70.45
2023-01-11T23:19:05.588Z,70.61
2023-01-11T23:21:32.817Z,70.52
2023-01-11T23:24:03.727Z,70.70
2023-01-11T23:26:30.814Z,70.45
2023-01-11T23:28:57.854Z,70.44
2023-01-11T23:31:26.677Z,70.76
2023-01-11T23:33:55.172Z,70.74
2023-01-11T23:36:23.016Z,70.63
2023-01-11T23:38:51.197Z,70.44
2023-01-11T23:41:37.663Z,70.70
2023-01-11T23:44:05.956Z,70.68
2023-01-11T23:46:51.681Z,70.33
2023-01-11T23:49:19.282Z,70.18
2023-01-11T23:51:46.617Z,70.45
2023-01-11T23:54:13.696Z,70.52
2023-01-11T23:56:40.954Z,70.52
2023-01-11T23:59:08.216Z,70.81
